Waynesville, OH

11:13 AM EDT on September 02, 2014 (GMT -0400)
Rivers Edge | Change Station
CLOSE
Current Station
Personal Weather Station
Location: Corwin, OH
Elevation: 840 ft
Nearby Weather Stations

Elev 840 ft 39.53 °N, 84.06 °W | Updated 27 seconds ago

Overcast
Overcast
72.3 °F
Feels Like 72.3 °F
N
7.0
Wind Variable Wind from SW
Gusts 11.0 mph

Today
High -- | Low -- °F
--% Chance of Precip.
Yesterday
High -- | Low -- °F
Precip. -- in
7:05 AM 8:05 PM
First Quarter, 52% visible
Pressure 29.95 in
Visibility 10.0 miles
Clouds Mostly Cloudy 800 ft
Dew Point 70 °F
Humidity 92%
Rainfall 0.76 in
Snow Depth Not available.
UV 3 out of 12
Pollen 2.80 out of 12
Ozone Good
PM2.5 Good
Flu Activity Not available.
METAR KMGY 021453Z AUTO 19010KT 10SM BKN008 21/19 A2997 RMK AO2 SLP142 60005 T02110194 55004

More Conditions Fewer Conditions

Pressure 29.95 in
Visibility 10.0 miles
Clouds Mostly Cloudy 800 ft
Dew Point 70 °F
Humidity 92%
Rainfall 0.76 in
Snow Depth Not available.
UV 3 out of 12
Pollen 2.80 out of 12
Ozone Good
PM2.5 Good
Flu Activity Not available.
METAR KMGY 021453Z AUTO 19010KT 10SM BKN008 21/19 A2997 RMK AO2 SLP142 60005 T02110194 55004

More Conditions Fewer Conditions

10-Day Weather Forecast

Almanac

Astronomy

Sep. 02, 2014 Rise Set
Actual Time 7:05 AM EDT 8:05 PM EDT
Civil Twilight 6:37 AM EDT 8:33 PM EDT
Nautical Twilight 6:05 AM EDT 9:05 PM EDT
Astronomical Twilight 5:31 AM EDT 9:39 PM EDT
Moon 2:47 PM EDT 12:09 AM EDT
Length of Visible Light 13h 55m
Length of Day
13h 00m
Tomorrow will be 2m 29s shorter.
First Quarter, 52% of the Moon is Illuminated
Today
First Quarter
Sep 8
Full
Sep 15
Last Quarter
Sep 24
New
Oct 1
First Quarter

Today's Extremes

State Highs State Lows

Community

WunderPhotos

Upload Photos

1,749,690 photos uploaded!

WunderBlogs® & News

Nearby

Air Quality

  Air Quality AQ Index Pollutant
Yesterday Good
PM10
Yesterday Good
OZONE
Current Good
PM2.5
Current Good
OZONE
Tuesday Moderate
PM2.5
Tuesday Good
OZONE

Snow Depth

Station Depth Elevation
No new snow has been reported.

Earthquake Activity

City Distance Mag. Time & Date
No recent earthquake activity has been reported nearby.
Minimum magnitude displayed is 2.5.

Coastal Water Temperatures

Place Temperature
No Stations Reporting

Nearby Weather Stations